sensor_id;sensor_type;location;lat;lon;timestamp;P1;durP1;ratioP1;P2;durP2;ratioP2
78122;SDS011;67376;44.802;10.332;2023-02-28T00:00:00;6.90;;;3.10;;
78122;SDS011;67376;44.802;10.332;2023-02-28T00:02:26;5.05;;;2.78;;
78122;SDS011;67376;44.802;10.332;2023-02-28T00:04:51;4.65;;;2.80;;
78122;SDS011;67376;44.802;10.332;2023-02-28T00:07:25;6.47;;;3.00;;
78122;SDS011;67376;44.802;10.332;2023-02-28T00:09:51;4.40;;;2.80;;
78122;SDS011;67376;44.802;10.332;2023-02-28T00:12:17;4.05;;;2.72;;
78122;SDS011;67376;44.802;10.332;2023-02-28T00:14:42;6.15;;;2.83;;
78122;SDS011;67376;44.802;10.332;2023-02-28T00:17:07;4.78;;;3.05;;
78122;SDS011;67376;44.802;10.332;2023-02-28T00:19:33;6.15;;;3.00;;
78122;SDS011;67376;44.802;10.332;2023-02-28T00:21:58;7.53;;;2.80;;
78122;SDS011;67376;44.802;10.332;2023-02-28T00:24:24;4.72;;;2.83;;
78122;SDS011;67376;44.802;10.332;2023-02-28T00:26:49;5.47;;;3.13;;
78122;SDS011;67376;44.802;10.332;2023-02-28T00:29:15;9.57;;;3.08;;
78122;SDS011;67376;44.802;10.332;2023-02-28T00:31:40;4.88;;;2.85;;
78122;SDS011;67376;44.802;10.332;2023-02-28T00:34:05;5.20;;;3.08;;
78122;SDS011;67376;44.802;10.332;2023-02-28T00:36:31;6.20;;;3.20;;
78122;SDS011;67376;44.802;10.332;2023-02-28T00:38:56;5.32;;;2.83;;
78122;SDS011;67376;44.802;10.332;2023-02-28T00:41:21;6.28;;;3.10;;
78122;SDS011;67376;44.802;10.332;2023-02-28T00:43:47;3.90;;;2.78;;
78122;SDS011;67376;44.802;10.332;2023-02-28T00:46:12;5.20;;;3.50;;
78122;SDS011;67376;44.802;10.332;2023-02-28T00:48:38;5.25;;;3.30;;
78122;SDS011;67376;44.802;10.332;2023-02-28T00:51:03;5.53;;;2.95;;
78122;SDS011;67376;44.802;10.332;2023-02-28T00:53:29;7.55;;;3.20;;
78122;SDS011;67376;44.802;10.332;2023-02-28T00:55:55;6.18;;;2.97;;
78122;SDS011;67376;44.802;10.332;2023-02-28T00:58:20;4.13;;;2.67;;
78122;SDS011;67376;44.802;10.332;2023-02-28T01:00:46;4.47;;;3.10;;
78122;SDS011;67376;44.802;10.332;2023-02-28T01:03:17;4.97;;;2.88;;
78122;SDS011;67376;44.802;10.332;2023-02-28T01:05:43;6.35;;;3.17;;
78122;SDS011;67376;44.802;10.332;2023-02-28T01:08:09;4.35;;;3.17;;
78122;SDS011;67376;44.802;10.332;2023-02-28T01:10:35;4.55;;;2.83;;
78122;SDS011;67376;44.802;10.332;2023-02-28T01:13:02;5.55;;;3.20;;
78122;SDS011;67376;44.802;10.332;2023-02-28T01:15:27;4.65;;;2.95;;
78122;SDS011;67376;44.802;10.332;2023-02-28T01:17:53;5.45;;;3.03;;
78122;SDS011;67376;44.802;10.332;2023-02-28T01:20:19;5.32;;;2.78;;
78122;SDS011;67376;44.802;10.332;2023-02-28T01:22:44;6.07;;;4.00;;
78122;SDS011;67376;44.802;10.332;2023-02-28T01:25:10;5.90;;;2.75;;
78122;SDS011;67376;44.802;10.332;2023-02-28T01:27:35;6.30;;;3.53;;
78122;SDS011;67376;44.802;10.332;2023-02-28T01:30:01;5.93;;;3.30;;
78122;SDS011;67376;44.802;10.332;2023-02-28T01:32:27;5.38;;;2.95;;
78122;SDS011;67376;44.802;10.332;2023-02-28T01:34:53;5.10;;;2.92;;
78122;SDS011;67376;44.802;10.332;2023-02-28T01:37:18;4.80;;;2.80;;
78122;SDS011;67376;44.802;10.332;2023-02-28T01:39:44;5.97;;;3.33;;
78122;SDS011;67376;44.802;10.332;2023-02-28T01:42:09;5.10;;;3.45;;
78122;SDS011;67376;44.802;10.332;2023-02-28T01:47:22;4.70;;;2.80;;
78122;SDS011;67376;44.802;10.332;2023-02-28T01:49:50;6.00;;;2.85;;
78122;SDS011;67376;44.802;10.332;2023-02-28T01:52:16;4.70;;;2.40;;
78122;SDS011;67376;44.802;10.332;2023-02-28T01:54:48;4.93;;;3.08;;
78122;SDS011;67376;44.802;10.332;2023-02-28T01:57:17;5.60;;;2.88;;
78122;SDS011;67376;44.802;10.332;2023-02-28T01:59:50;6.85;;;2.88;;
78122;SDS011;67376;44.802;10.332;2023-02-28T02:02:20;5.28;;;2.88;;
78122;SDS011;67376;44.802;10.332;2023-02-28T02:04:53;4.82;;;2.63;;
78122;SDS011;67376;44.802;10.332;2023-02-28T02:07:22;6.28;;;3.33;;
78122;SDS011;67376;44.802;10.332;2023-02-28T02:09:49;6.18;;;2.88;;
78122;SDS011;67376;44.802;10.332;2023-02-28T02:12:20;3.67;;;2.60;;
78122;SDS011;67376;44.802;10.332;2023-02-28T02:25:32;5.13;;;2.72;;
78122;SDS011;67376;44.802;10.332;2023-02-28T02:36:47;5.55;;;2.85;;
78122;SDS011;67376;44.802;10.332;2023-02-28T02:42:16;4.85;;;2.70;;
78122;SDS011;67376;44.802;10.332;2023-02-28T02:44:50;7.10;;;3.00;;
78122;SDS011;67376;44.802;10.332;2023-02-28T02:47:24;4.30;;;2.90;;
78122;SDS011;67376;44.802;10.332;2023-02-28T02:49:54;5.47;;;3.10;;
78122;SDS011;67376;44.802;10.332;2023-02-28T02:52:24;4.43;;;2.90;;
78122;SDS011;67376;44.802;10.332;2023-02-28T02:55:00;4.70;;;3.20;;
78122;SDS011;67376;44.802;10.332;2023-02-28T02:57:33;4.90;;;2.92;;
78122;SDS011;67376;44.802;10.332;2023-02-28T03:00:04;4.93;;;2.92;;
78122;SDS011;67376;44.802;10.332;2023-02-28T03:02:33;5.07;;;2.67;;
78122;SDS011;67376;44.802;10.332;2023-02-28T03:05:02;4.30;;;2.80;;
78122;SDS011;67376;44.802;10.332;2023-02-28T03:07:37;4.63;;;3.00;;
78122;SDS011;67376;44.802;10.332;2023-02-28T03:10:02;2.85;;;2.50;;
78122;SDS011;67376;44.802;10.332;2023-02-28T03:12:49;3.55;;;2.65;;
78122;SDS011;67376;44.802;10.332;2023-02-28T03:20:46;3.80;;;2.60;;
78122;SDS011;67376;44.802;10.332;2023-02-28T03:23:35;5.72;;;2.67;;
78122;SDS011;67376;44.802;10.332;2023-02-28T03:26:18;4.70;;;2.78;;
78122;SDS011;67376;44.802;10.332;2023-02-28T03:31:19;5.10;;;2.92;;
78122;SDS011;67376;44.802;10.332;2023-02-28T03:33:51;4.47;;;3.05;;
78122;SDS011;67376;44.802;10.332;2023-02-28T03:39:09;5.72;;;2.95;;
78122;SDS011;67376;44.802;10.332;2023-02-28T03:42:00;4.68;;;3.03;;
78122;SDS011;67376;44.802;10.332;2023-02-28T03:44:32;4.00;;;3.13;;
78122;SDS011;67376;44.802;10.332;2023-02-28T03:47:08;4.57;;;2.90;;
78122;SDS011;67376;44.802;10.332;2023-02-28T03:52:21;4.00;;;3.00;;
78122;SDS011;67376;44.802;10.332;2023-02-28T03:57:27;3.90;;;2.67;;
78122;SDS011;67376;44.802;10.332;2023-02-28T04:00:05;4.88;;;2.75;;
78122;SDS011;67376;44.802;10.332;2023-02-28T04:02:34;5.18;;;2.80;;
78122;SDS011;67376;44.802;10.332;2023-02-28T04:05:00;4.78;;;2.65;;
78122;SDS011;67376;44.802;10.332;2023-02-28T04:07:28;4.25;;;2.90;;
78122;SDS011;67376;44.802;10.332;2023-02-28T04:09:55;5.35;;;2.92;;
78122;SDS011;67376;44.802;10.332;2023-02-28T04:12:20;4.47;;;2.80;;
78122;SDS011;67376;44.802;10.332;2023-02-28T04:14:48;4.50;;;3.08;;
78122;SDS011;67376;44.802;10.332;2023-02-28T04:17:13;4.85;;;2.95;;
78122;SDS011;67376;44.802;10.332;2023-02-28T04:19:39;5.07;;;2.72;;
78122;SDS011;67376;44.802;10.332;2023-02-28T04:22:04;5.20;;;2.50;;
78122;SDS011;67376;44.802;10.332;2023-02-28T04:24:29;4.28;;;3.17;;
78122;SDS011;67376;44.802;10.332;2023-02-28T04:26:56;6.22;;;3.47;;
78122;SDS011;67376;44.802;10.332;2023-02-28T04:29:27;3.85;;;2.60;;
78122;SDS011;67376;44.802;10.332;2023-02-28T04:31:54;4.88;;;2.92;;
78122;SDS011;67376;44.802;10.332;2023-02-28T04:34:24;4.57;;;3.00;;
78122;SDS011;67376;44.802;10.332;2023-02-28T04:36:50;5.25;;;3.20;;
78122;SDS011;67376;44.802;10.332;2023-02-28T04:39:18;5.88;;;3.25;;
78122;SDS011;67376;44.802;10.332;2023-02-28T04:41:44;5.35;;;2.80;;
78122;SDS011;67376;44.802;10.332;2023-02-28T04:44:10;4.22;;;2.92;;
78122;SDS011;67376;44.802;10.332;2023-02-28T04:46:35;8.82;;;3.80;;
78122;SDS011;67376;44.802;10.332;2023-02-28T04:49:01;4.20;;;3.15;;
78122;SDS011;67376;44.802;10.332;2023-02-28T04:51:26;4.47;;;3.17;;
78122;SDS011;67376;44.802;10.332;2023-02-28T04:53:52;5.03;;;2.95;;
78122;SDS011;67376;44.802;10.332;2023-02-28T04:56:18;5.60;;;2.90;;
78122;SDS011;67376;44.802;10.332;2023-02-28T04:58:44;5.13;;;2.90;;
78122;SDS011;67376;44.802;10.332;2023-02-28T05:01:20;5.07;;;2.95;;
78122;SDS011;67376;44.802;10.332;2023-02-28T05:03:51;6.20;;;3.38;;
78122;SDS011;67376;44.802;10.332;2023-02-28T05:06:18;5.22;;;3.42;;
78122;SDS011;67376;44.802;10.332;2023-02-28T05:08:45;4.43;;;2.97;;
78122;SDS011;67376;44.802;10.332;2023-02-28T05:11:22;6.15;;;3.50;;
78122;SDS011;67376;44.802;10.332;2023-02-28T05:13:49;6.00;;;3.13;;
78122;SDS011;67376;44.802;10.332;2023-02-28T05:16:15;5.80;;;3.55;;
78122;SDS011;67376;44.802;10.332;2023-02-28T05:18:42;6.57;;;3.60;;
78122;SDS011;67376;44.802;10.332;2023-02-28T05:23:50;6.72;;;3.60;;
78122;SDS011;67376;44.802;10.332;2023-02-28T05:26:17;5.53;;;3.17;;
78122;SDS011;67376;44.802;10.332;2023-02-28T05:28:43;5.40;;;2.97;;
78122;SDS011;67376;44.802;10.332;2023-02-28T05:31:10;5.15;;;2.80;;
78122;SDS011;67376;44.802;10.332;2023-02-28T05:33:36;4.35;;;2.92;;
78122;SDS011;67376;44.802;10.332;2023-02-28T05:36:01;4.97;;;3.90;;
78122;SDS011;67376;44.802;10.332;2023-02-28T05:38:26;6.95;;;3.15;;
78122;SDS011;67376;44.802;10.332;2023-02-28T05:40:52;5.13;;;3.00;;
78122;SDS011;67376;44.802;10.332;2023-02-28T05:43:18;4.75;;;2.80;;
78122;SDS011;67376;44.802;10.332;2023-02-28T05:45:43;4.22;;;2.85;;
78122;SDS011;67376;44.802;10.332;2023-02-28T05:48:09;4.28;;;2.80;;
78122;SDS011;67376;44.802;10.332;2023-02-28T05:50:34;5.15;;;2.85;;
78122;SDS011;67376;44.802;10.332;2023-02-28T05:53:00;6.18;;;3.20;;
78122;SDS011;67376;44.802;10.332;2023-02-28T05:55:25;7.45;;;4.57;;
78122;SDS011;67376;44.802;10.332;2023-02-28T05:57:51;6.55;;;3.28;;
78122;SDS011;67376;44.802;10.332;2023-02-28T06:00:16;4.30;;;2.72;;
78122;SDS011;67376;44.802;10.332;2023-02-28T06:02:42;6.07;;;3.67;;
78122;SDS011;67376;44.802;10.332;2023-02-28T06:05:13;4.68;;;3.25;;
78122;SDS011;67376;44.802;10.332;2023-02-28T06:07:40;7.03;;;2.92;;
78122;SDS011;67376;44.802;10.332;2023-02-28T06:10:06;5.80;;;3.45;;
78122;SDS011;67376;44.802;10.332;2023-02-28T06:12:31;4.70;;;3.25;;
78122;SDS011;67376;44.802;10.332;2023-02-28T06:14:57;5.28;;;2.88;;
78122;SDS011;67376;44.802;10.332;2023-02-28T06:17:22;5.13;;;3.20;;
78122;SDS011;67376;44.802;10.332;2023-02-28T06:19:48;5.15;;;3.05;;
78122;SDS011;67376;44.802;10.332;2023-02-28T06:22:13;7.68;;;3.55;;
78122;SDS011;67376;44.802;10.332;2023-02-28T06:24:38;6.80;;;3.22;;
78122;SDS011;67376;44.802;10.332;2023-02-28T06:27:04;5.28;;;3.60;;
78122;SDS011;67376;44.802;10.332;2023-02-28T06:29:33;5.68;;;3.33;;
78122;SDS011;67376;44.802;10.332;2023-02-28T06:31:59;5.85;;;2.80;;
78122;SDS011;67376;44.802;10.332;2023-02-28T06:34:25;7.38;;;3.40;;
78122;SDS011;67376;44.802;10.332;2023-02-28T06:36:50;5.20;;;3.10;;
78122;SDS011;67376;44.802;10.332;2023-02-28T06:39:16;5.28;;;3.10;;
78122;SDS011;67376;44.802;10.332;2023-02-28T06:41:42;5.22;;;3.30;;
78122;SDS011;67376;44.802;10.332;2023-02-28T06:44:14;7.47;;;3.92;;
78122;SDS011;67376;44.802;10.332;2023-02-28T06:46:41;6.38;;;4.10;;
78122;SDS011;67376;44.802;10.332;2023-02-28T06:49:09;7.65;;;4.72;;
78122;SDS011;67376;44.802;10.332;2023-02-28T06:51:35;7.80;;;4.90;;
78122;SDS011;67376;44.802;10.332;2023-02-28T06:54:03;7.22;;;5.25;;
78122;SDS011;67376;44.802;10.332;2023-02-28T06:56:28;8.40;;;5.00;;
78122;SDS011;67376;44.802;10.332;2023-02-28T06:58:54;7.05;;;4.60;;
78122;SDS011;67376;44.802;10.332;2023-02-28T07:01:20;8.82;;;4.70;;
78122;SDS011;67376;44.802;10.332;2023-02-28T07:03:47;6.75;;;4.70;;
78122;SDS011;67376;44.802;10.332;2023-02-28T07:06:17;7.38;;;4.07;;
78122;SDS011;67376;44.802;10.332;2023-02-28T07:08:43;7.00;;;4.15;;
78122;SDS011;67376;44.802;10.332;2023-02-28T07:11:09;5.88;;;3.50;;
78122;SDS011;67376;44.802;10.332;2023-02-28T07:13:35;7.95;;;4.00;;
78122;SDS011;67376;44.802;10.332;2023-02-28T07:16:03;7.13;;;3.67;;
78122;SDS011;67376;44.802;10.332;2023-02-28T07:18:31;7.80;;;3.95;;
78122;SDS011;67376;44.802;10.332;2023-02-28T07:20:57;8.35;;;4.38;;
78122;SDS011;67376;44.802;10.332;2023-02-28T07:23:22;5.60;;;3.40;;
78122;SDS011;67376;44.802;10.332;2023-02-28T07:25:49;6.43;;;3.78;;
78122;SDS011;67376;44.802;10.332;2023-02-28T07:28:15;5.78;;;3.35;;
78122;SDS011;67376;44.802;10.332;2023-02-28T07:30:41;6.07;;;3.40;;
78122;SDS011;67376;44.802;10.332;2023-02-28T07:33:06;5.07;;;3.55;;
78122;SDS011;67376;44.802;10.332;2023-02-28T07:35:32;6.30;;;3.10;;
78122;SDS011;67376;44.802;10.332;2023-02-28T07:37:58;6.97;;;3.53;;
78122;SDS011;67376;44.802;10.332;2023-02-28T07:40:24;7.28;;;3.63;;
78122;SDS011;67376;44.802;10.332;2023-02-28T07:42:49;5.47;;;2.95;;
78122;SDS011;67376;44.802;10.332;2023-02-28T07:45:15;5.82;;;3.47;;
78122;SDS011;67376;44.802;10.332;2023-02-28T07:47:42;5.05;;;3.63;;
78122;SDS011;67376;44.802;10.332;2023-02-28T07:50:09;5.47;;;3.15;;
78122;SDS011;67376;44.802;10.332;2023-02-28T07:52:37;6.20;;;3.55;;
78122;SDS011;67376;44.802;10.332;2023-02-28T07:55:03;5.25;;;3.25;;
78122;SDS011;67376;44.802;10.332;2023-02-28T07:57:30;4.53;;;3.03;;
78122;SDS011;67376;44.802;10.332;2023-02-28T07:59:55;4.05;;;2.92;;
78122;SDS011;67376;44.802;10.332;2023-02-28T08:02:20;5.53;;;3.25;;
78122;SDS011;67376;44.802;10.332;2023-02-28T08:04:46;6.18;;;3.30;;
78122;SDS011;67376;44.802;10.332;2023-02-28T08:07:13;5.82;;;3.30;;
78122;SDS011;67376;44.802;10.332;2023-02-28T08:09:39;5.63;;;3.75;;
78122;SDS011;67376;44.802;10.332;2023-02-28T08:12:09;7.25;;;3.42;;
78122;SDS011;67376;44.802;10.332;2023-02-28T08:14:35;4.82;;;3.28;;
78122;SDS011;67376;44.802;10.332;2023-02-28T08:17:01;6.50;;;3.28;;
78122;SDS011;67376;44.802;10.332;2023-02-28T08:19:27;6.22;;;3.35;;
78122;SDS011;67376;44.802;10.332;2023-02-28T08:21:53;7.28;;;3.25;;
78122;SDS011;67376;44.802;10.332;2023-02-28T08:24:18;6.05;;;3.65;;
78122;SDS011;67376;44.802;10.332;2023-02-28T08:26:44;6.45;;;3.13;;
78122;SDS011;67376;44.802;10.332;2023-02-28T08:29:09;6.97;;;3.17;;
78122;SDS011;67376;44.802;10.332;2023-02-28T08:31:35;8.88;;;3.90;;
78122;SDS011;67376;44.802;10.332;2023-02-28T08:34:07;5.95;;;3.05;;
78122;SDS011;67376;44.802;10.332;2023-02-28T08:36:33;5.03;;;2.95;;
78122;SDS011;67376;44.802;10.332;2023-02-28T08:38:59;5.55;;;3.22;;
78122;SDS011;67376;44.802;10.332;2023-02-28T08:41:25;4.90;;;2.80;;
78122;SDS011;67376;44.802;10.332;2023-02-28T08:43:51;5.00;;;3.35;;
78122;SDS011;67376;44.802;10.332;2023-02-28T08:46:16;5.57;;;3.15;;
78122;SDS011;67376;44.802;10.332;2023-02-28T08:48:42;4.47;;;3.10;;
78122;SDS011;67376;44.802;10.332;2023-02-28T08:51:15;6.00;;;3.42;;
78122;SDS011;67376;44.802;10.332;2023-02-28T08:53:47;6.40;;;3.40;;
78122;SDS011;67376;44.802;10.332;2023-02-28T08:56:14;5.93;;;3.55;;
78122;SDS011;67376;44.802;10.332;2023-02-28T08:58:41;5.32;;;3.20;;
78122;SDS011;67376;44.802;10.332;2023-02-28T09:01:15;6.13;;;2.95;;
78122;SDS011;67376;44.802;10.332;2023-02-28T09:03:43;4.70;;;3.10;;
78122;SDS011;67376;44.802;10.332;2023-02-28T09:06:11;6.65;;;3.53;;
78122;SDS011;67376;44.802;10.332;2023-02-28T09:08:37;7.25;;;3.25;;
78122;SDS011;67376;44.802;10.332;2023-02-28T09:11:03;6.85;;;3.47;;
78122;SDS011;67376;44.802;10.332;2023-02-28T09:13:29;6.60;;;3.50;;
78122;SDS011;67376;44.802;10.332;2023-02-28T09:15:57;6.53;;;2.92;;
78122;SDS011;67376;44.802;10.332;2023-02-28T09:18:24;6.60;;;3.08;;
78122;SDS011;67376;44.802;10.332;2023-02-28T09:20:50;5.30;;;2.75;;
78122;SDS011;67376;44.802;10.332;2023-02-28T09:23:16;6.47;;;3.38;;
78122;SDS011;67376;44.802;10.332;2023-02-28T09:25:45;4.80;;;2.92;;
78122;SDS011;67376;44.802;10.332;2023-02-28T09:28:16;5.82;;;3.05;;
78122;SDS011;67376;44.802;10.332;2023-02-28T09:30:47;6.05;;;2.95;;
78122;SDS011;67376;44.802;10.332;2023-02-28T09:33:15;5.05;;;3.03;;
78122;SDS011;67376;44.802;10.332;2023-02-28T09:35:41;4.80;;;2.92;;
78122;SDS011;67376;44.802;10.332;2023-02-28T09:38:08;5.68;;;3.08;;
78122;SDS011;67376;44.802;10.332;2023-02-28T09:40:37;4.68;;;3.10;;
78122;SDS011;67376;44.802;10.332;2023-02-28T09:43:10;6.95;;;3.60;;
78122;SDS011;67376;44.802;10.332;2023-02-28T09:48:12;5.55;;;3.35;;
78122;SDS011;67376;44.802;10.332;2023-02-28T09:53:31;4.90;;;3.00;;
78122;SDS011;67376;44.802;10.332;2023-02-28T09:56:04;7.43;;;3.40;;
78122;SDS011;67376;44.802;10.332;2023-02-28T10:03:59;6.10;;;3.42;;
78122;SDS011;67376;44.802;10.332;2023-02-28T10:06:34;6.10;;;3.80;;
78122;SDS011;67376;44.802;10.332;2023-02-28T10:09:08;5.88;;;2.95;;
78122;SDS011;67376;44.802;10.332;2023-02-28T10:11:41;7.72;;;3.50;;
78122;SDS011;67376;44.802;10.332;2023-02-28T10:16:42;5.63;;;3.53;;
78122;SDS011;67376;44.802;10.332;2023-02-28T10:22:32;5.82;;;3.63;;
78122;SDS011;67376;44.802;10.332;2023-02-28T10:25:17;5.85;;;3.28;;
78122;SDS011;67376;44.802;10.332;2023-02-28T10:27:45;5.93;;;3.55;;
78122;SDS011;67376;44.802;10.332;2023-02-28T10:30:11;4.72;;;3.15;;
78122;SDS011;67376;44.802;10.332;2023-02-28T10:32:43;5.88;;;3.45;;
78122;SDS011;67376;44.802;10.332;2023-02-28T10:35:16;5.78;;;3.50;;
78122;SDS011;67376;44.802;10.332;2023-02-28T10:38:05;7.75;;;3.72;;
78122;SDS011;67376;44.802;10.332;2023-02-28T10:40:37;7.03;;;3.60;;
78122;SDS011;67376;44.802;10.332;2023-02-28T10:43:03;9.25;;;3.55;;
78122;SDS011;67376;44.802;10.332;2023-02-28T10:45:37;6.35;;;3.22;;
78122;SDS011;67376;44.802;10.332;2023-02-28T10:48:25;6.78;;;3.65;;
78122;SDS011;67376;44.802;10.332;2023-02-28T10:50:52;5.68;;;3.10;;
78122;SDS011;67376;44.802;10.332;2023-02-28T10:56:30;5.05;;;3.13;;
78122;SDS011;67376;44.802;10.332;2023-02-28T11:01:21;6.60;;;3.72;;
78122;SDS011;67376;44.802;10.332;2023-02-28T11:03:48;5.75;;;3.22;;
78122;SDS011;67376;44.802;10.332;2023-02-28T11:06:33;4.78;;;3.22;;
78122;SDS011;67376;44.802;10.332;2023-02-28T11:09:01;5.40;;;3.00;;
78122;SDS011;67376;44.802;10.332;2023-02-28T11:11:41;6.05;;;3.60;;
78122;SDS011;67376;44.802;10.332;2023-02-28T11:14:17;6.53;;;3.45;;
78122;SDS011;67376;44.802;10.332;2023-02-28T11:16:46;8.70;;;3.78;;
78122;SDS011;67376;44.802;10.332;2023-02-28T11:20:14;6.30;;;3.42;;
78122;SDS011;67376;44.802;10.332;2023-02-28T11:22:11;6.30;;;3.35;;
78122;SDS011;67376;44.802;10.332;2023-02-28T11:24:45;5.90;;;3.70;;
78122;SDS011;67376;44.802;10.332;2023-02-28T11:29:55;6.80;;;3.53;;
78122;SDS011;67376;44.802;10.332;2023-02-28T11:32:24;5.90;;;3.60;;
78122;SDS011;67376;44.802;10.332;2023-02-28T11:35:03;5.78;;;3.50;;
78122;SDS011;67376;44.802;10.332;2023-02-28T11:37:31;6.32;;;3.33;;
78122;SDS011;67376;44.802;10.332;2023-02-28T11:39:58;9.88;;;3.60;;
78122;SDS011;67376;44.802;10.332;2023-02-28T11:42:32;5.65;;;3.47;;
78122;SDS011;67376;44.802;10.332;2023-02-28T11:45:18;4.00;;;2.83;;
78122;SDS011;67376;44.802;10.332;2023-02-28T11:51:04;4.50;;;3.10;;
78122;SDS011;67376;44.802;10.332;2023-02-28T11:58:53;5.97;;;3.40;;
78122;SDS011;67376;44.802;10.332;2023-02-28T12:27:43;5.35;;;3.40;;
78122;SDS011;67376;44.802;10.332;2023-02-28T12:32:47;5.28;;;3.33;;
78122;SDS011;67376;44.802;10.332;2023-02-28T12:35:19;5.35;;;3.30;;
78122;SDS011;67376;44.802;10.332;2023-02-28T12:37:55;5.45;;;3.20;;
78122;SDS011;67376;44.802;10.332;2023-02-28T12:40:28;5.93;;;3.20;;
78122;SDS011;67376;44.802;10.332;2023-02-28T12:43:07;5.32;;;3.60;;
78122;SDS011;67376;44.802;10.332;2023-02-28T12:48:06;7.50;;;3.58;;
78122;SDS011;67376;44.802;10.332;2023-02-28T12:50:35;4.32;;;2.90;;
78122;SDS011;67376;44.802;10.332;2023-02-28T12:55:44;5.90;;;3.22;;
78122;SDS011;67376;44.802;10.332;2023-02-28T13:09:11;7.00;;;4.03;;
78122;SDS011;67376;44.802;10.332;2023-02-28T13:11:41;4.88;;;3.22;;
78122;SDS011;67376;44.802;10.332;2023-02-28T13:19:25;6.47;;;3.90;;
78122;SDS011;67376;44.802;10.332;2023-02-28T13:21:53;5.22;;;3.38;;
78122;SDS011;67376;44.802;10.332;2023-02-28T13:29:28;5.88;;;3.42;;
78122;SDS011;67376;44.802;10.332;2023-02-28T13:39:58;8.00;;;3.80;;
78122;SDS011;67376;44.802;10.332;2023-02-28T13:47:42;8.38;;;3.40;;
78122;SDS011;67376;44.802;10.332;2023-02-28T13:58:53;6.47;;;3.95;;
78122;SDS011;67376;44.802;10.332;2023-02-28T14:06:32;5.60;;;3.15;;
78122;SDS011;67376;44.802;10.332;2023-02-28T14:09:01;5.18;;;3.15;;
78122;SDS011;67376;44.802;10.332;2023-02-28T14:11:48;8.20;;;3.80;;
78122;SDS011;67376;44.802;10.332;2023-02-28T14:19:31;6.80;;;3.63;;
78122;SDS011;67376;44.802;10.332;2023-02-28T14:33:14;6.18;;;3.80;;
78122;SDS011;67376;44.802;10.332;2023-02-28T14:36:00;5.38;;;3.50;;
78122;SDS011;67376;44.802;10.332;2023-02-28T14:38:31;5.70;;;3.33;;
78122;SDS011;67376;44.802;10.332;2023-02-28T14:41:00;5.95;;;3.75;;
78122;SDS011;67376;44.802;10.332;2023-02-28T14:43:31;4.57;;;3.50;;
78122;SDS011;67376;44.802;10.332;2023-02-28T14:45:59;5.32;;;3.42;;
78122;SDS011;67376;44.802;10.332;2023-02-28T14:48:26;6.18;;;4.28;;
78122;SDS011;67376;44.802;10.332;2023-02-28T14:50:57;5.78;;;3.25;;
78122;SDS011;67376;44.802;10.332;2023-02-28T14:53:28;4.90;;;3.17;;
78122;SDS011;67376;44.802;10.332;2023-02-28T14:55:55;5.32;;;3.60;;
78122;SDS011;67376;44.802;10.332;2023-02-28T14:58:25;6.03;;;3.45;;
78122;SDS011;67376;44.802;10.332;2023-02-28T15:00:57;7.47;;;3.30;;
78122;SDS011;67376;44.802;10.332;2023-02-28T15:03:28;7.68;;;3.75;;
78122;SDS011;67376;44.802;10.332;2023-02-28T15:05:56;8.55;;;3.92;;
78122;SDS011;67376;44.802;10.332;2023-02-28T15:08:24;5.47;;;3.75;;
78122;SDS011;67376;44.802;10.332;2023-02-28T15:10:55;6.55;;;3.65;;
78122;SDS011;67376;44.802;10.332;2023-02-28T15:13:26;4.80;;;3.22;;
78122;SDS011;67376;44.802;10.332;2023-02-28T15:16:16;5.45;;;3.72;;
78122;SDS011;67376;44.802;10.332;2023-02-28T15:21:23;5.40;;;3.60;;
78122;SDS011;67376;44.802;10.332;2023-02-28T15:24:03;5.43;;;3.55;;
78122;SDS011;67376;44.802;10.332;2023-02-28T15:26:32;5.18;;;3.33;;
78122;SDS011;67376;44.802;10.332;2023-02-28T15:29:14;5.13;;;3.40;;
78122;SDS011;67376;44.802;10.332;2023-02-28T15:31:46;6.32;;;3.30;;
78122;SDS011;67376;44.802;10.332;2023-02-28T15:34:47;7.43;;;4.13;;
78122;SDS011;67376;44.802;10.332;2023-02-28T15:37:27;5.15;;;3.50;;
78122;SDS011;67376;44.802;10.332;2023-02-28T15:45:34;6.75;;;4.00;;
78122;SDS011;67376;44.802;10.332;2023-02-28T15:48:04;5.82;;;3.55;;
78122;SDS011;67376;44.802;10.332;2023-02-28T15:50:35;4.32;;;3.42;;
78122;SDS011;67376;44.802;10.332;2023-02-28T15:53:01;6.05;;;3.92;;
78122;SDS011;67376;44.802;10.332;2023-02-28T15:55:28;8.05;;;3.58;;
78122;SDS011;67376;44.802;10.332;2023-02-28T15:57:56;7.82;;;3.70;;
78122;SDS011;67376;44.802;10.332;2023-02-28T16:00:25;8.23;;;4.45;;
78122;SDS011;67376;44.802;10.332;2023-02-28T16:02:53;5.22;;;3.80;;
78122;SDS011;67376;44.802;10.332;2023-02-28T16:07:45;5.53;;;3.83;;
78122;SDS011;67376;44.802;10.332;2023-02-28T16:10:13;7.13;;;3.80;;
78122;SDS011;67376;44.802;10.332;2023-02-28T16:12:39;5.90;;;4.07;;
78122;SDS011;67376;44.802;10.332;2023-02-28T16:15:09;5.38;;;3.75;;
78122;SDS011;67376;44.802;10.332;2023-02-28T16:17:43;5.97;;;4.10;;
78122;SDS011;67376;44.802;10.332;2023-02-28T16:20:17;6.35;;;3.72;;
78122;SDS011;67376;44.802;10.332;2023-02-28T16:22:54;5.32;;;3.63;;
78122;SDS011;67376;44.802;10.332;2023-02-28T16:25:22;5.00;;;3.60;;
78122;SDS011;67376;44.802;10.332;2023-02-28T16:27:52;5.53;;;3.63;;
78122;SDS011;67376;44.802;10.332;2023-02-28T16:30:22;5.63;;;3.85;;
78122;SDS011;67376;44.802;10.332;2023-02-28T16:32:50;6.30;;;3.30;;
78122;SDS011;67376;44.802;10.332;2023-02-28T16:35:18;5.50;;;3.67;;
78122;SDS011;67376;44.802;10.332;2023-02-28T16:37:43;5.68;;;3.97;;
78122;SDS011;67376;44.802;10.332;2023-02-28T16:40:19;6.10;;;4.05;;
78122;SDS011;67376;44.802;10.332;2023-02-28T16:42:55;8.23;;;4.20;;
78122;SDS011;67376;44.802;10.332;2023-02-28T16:45:27;5.95;;;3.70;;
78122;SDS011;67376;44.802;10.332;2023-02-28T16:47:54;5.32;;;3.92;;
78122;SDS011;67376;44.802;10.332;2023-02-28T16:50:21;9.35;;;3.80;;
78122;SDS011;67376;44.802;10.332;2023-02-28T16:52:54;5.95;;;3.75;;
78122;SDS011;67376;44.802;10.332;2023-02-28T16:55:21;6.45;;;3.97;;
78122;SDS011;67376;44.802;10.332;2023-02-28T16:57:51;6.50;;;4.15;;
78122;SDS011;67376;44.802;10.332;2023-02-28T17:00:22;8.15;;;4.20;;
78122;SDS011;67376;44.802;10.332;2023-02-28T17:02:48;6.45;;;3.95;;
78122;SDS011;67376;44.802;10.332;2023-02-28T17:05:13;5.25;;;3.67;;
78122;SDS011;67376;44.802;10.332;2023-02-28T17:07:40;6.53;;;3.75;;
78122;SDS011;67376;44.802;10.332;2023-02-28T17:10:13;9.18;;;4.65;;
78122;SDS011;67376;44.802;10.332;2023-02-28T17:12:41;5.88;;;3.55;;
78122;SDS011;67376;44.802;10.332;2023-02-28T17:15:07;6.13;;;4.13;;
78122;SDS011;67376;44.802;10.332;2023-02-28T17:17:33;5.35;;;3.97;;
78122;SDS011;67376;44.802;10.332;2023-02-28T17:19:59;6.32;;;3.90;;
78122;SDS011;67376;44.802;10.332;2023-02-28T17:22:24;6.22;;;4.38;;
78122;SDS011;67376;44.802;10.332;2023-02-28T17:24:51;5.75;;;4.28;;
78122;SDS011;67376;44.802;10.332;2023-02-28T17:27:20;5.57;;;3.70;;
78122;SDS011;67376;44.802;10.332;2023-02-28T17:29:46;8.95;;;4.43;;
78122;SDS011;67376;44.802;10.332;2023-02-28T17:32:12;7.95;;;4.45;;
78122;SDS011;67376;44.802;10.332;2023-02-28T17:34:37;5.45;;;3.75;;
78122;SDS011;67376;44.802;10.332;2023-02-28T17:37:03;5.05;;;3.80;;
78122;SDS011;67376;44.802;10.332;2023-02-28T17:39:29;7.10;;;4.45;;
78122;SDS011;67376;44.802;10.332;2023-02-28T17:41:55;5.45;;;4.13;;
78122;SDS011;67376;44.802;10.332;2023-02-28T17:44:21;5.65;;;4.13;;
78122;SDS011;67376;44.802;10.332;2023-02-28T17:46:48;6.40;;;4.07;;
78122;SDS011;67376;44.802;10.332;2023-02-28T17:49:15;5.80;;;3.92;;